Tecumseh, Indiana
Current Conditions -  °F | °C
As of 10:53 AM on Friday 28 Nov 2014 (Local Time) from KHUF Reporting Station
Overcast Overcast  
Wind Chill: 18°   Ceiling: 12000
Heat Index: 28°   Visibility: 10mi
Dew Point: 20°   Wind: 12mph
Humidity: 72%   Direction: 150°SSE
Pressure: 30.33"   Gusts: NA
Location:  39.5107°N, 87.4772°W
Report Text: KHUF 281553Z 15010KT 10SM OVC120 M02/M07 A3033 RMK AO2 SLP277 T10221067
Loading
Personal Weather Stations






























Interactive Weather Map New forecast layout! Learn more

10-Day Weather Forecast

Advertisements
Track Severe Weather on mobile